createdAt,value
2023-02-02T00:00:14.266Z,99.99
2023-02-02T00:01:14.243Z,99.99
2023-02-02T00:02:14.237Z,99.99
2023-02-02T00:03:14.217Z,99.99
2023-02-02T00:04:14.297Z,99.99
2023-02-02T00:05:14.214Z,99.99
2023-02-02T00:06:14.194Z,99.99
2023-02-02T00:07:14.164Z,99.99
2023-02-02T00:08:14.158Z,99.91
2023-02-02T00:09:14.186Z,99.70
2023-02-02T00:10:14.135Z,99.70
2023-02-02T00:11:14.134Z,99.80
2023-02-02T00:12:14.115Z,99.70
2023-02-02T00:13:14.105Z,98.82
2023-02-02T00:14:14.146Z,98.41
2023-02-02T00:15:14.103Z,98.72
2023-02-02T00:16:14.092Z,99.13
2023-02-02T00:17:14.048Z,99.44
2023-02-02T00:18:14.047Z,99.65
2023-02-02T00:19:14.033Z,99.34
2023-02-02T00:20:14.070Z,99.24
2023-02-02T00:21:14.002Z,99.24
2023-02-02T00:22:14.000Z,99.24
2023-02-02T00:23:14.006Z,98.78
2023-02-02T00:24:13.985Z,98.57
2023-02-02T00:25:14.004Z,98.47
2023-02-02T00:26:13.972Z,98.16
2023-02-02T00:27:13.954Z,98.68
2023-02-02T00:28:13.947Z,98.57
2023-02-02T00:29:13.924Z,98.26
2023-02-02T00:30:13.960Z,98.16
2023-02-02T00:31:13.963Z,97.85
2023-02-02T00:32:13.901Z,97.95
2023-02-02T00:33:13.890Z,98.05
2023-02-02T00:34:13.890Z,98.57
2023-02-02T00:35:13.879Z,98.68
2023-02-02T00:36:13.854Z,99.30
2023-02-02T00:37:13.834Z,99.40
2023-02-02T00:38:13.834Z,98.78
2023-02-02T00:39:13.793Z,98.88
2023-02-02T00:40:13.858Z,98.99
2023-02-02T00:41:13.806Z,99.09
2023-02-02T00:42:13.779Z,98.88
2023-02-02T00:43:13.768Z,98.78
2023-02-02T00:44:13.750Z,98.78
2023-02-02T00:45:13.781Z,98.68
2023-02-02T00:46:13.733Z,98.88
2023-02-02T00:47:13.731Z,98.88
2023-02-02T00:48:13.708Z,99.24
2023-02-02T00:49:13.705Z,99.65
2023-02-02T00:50:13.746Z,99.86
2023-02-02T00:51:13.667Z,99.65
2023-02-02T00:52:13.667Z,99.13
2023-02-02T00:53:13.656Z,99.24
2023-02-02T00:54:13.653Z,99.13
2023-02-02T00:55:13.669Z,99.03
2023-02-02T00:56:13.620Z,98.82
2023-02-02T00:57:13.611Z,98.82
2023-02-02T00:58:13.614Z,98.51
2023-02-02T00:59:13.585Z,98.41
2023-02-02T01:00:13.632Z,98.82
2023-02-02T01:01:13.592Z,99.18
2023-02-02T01:02:13.589Z,99.49
2023-02-02T01:03:13.528Z,99.34
2023-02-02T01:04:13.524Z,98.61
2023-02-02T01:05:13.563Z,98.51
2023-02-02T01:06:13.502Z,98.36
2023-02-02T01:07:13.506Z,98.47
2023-02-02T01:08:13.485Z,98.88
2023-02-02T01:09:13.465Z,99.03
2023-02-02T01:10:13.494Z,98.36
2023-02-02T01:11:13.452Z,97.74
2023-02-02T01:12:13.442Z,97.95
2023-02-02T01:13:13.422Z,98.16
2023-02-02T01:14:13.435Z,98.16
2023-02-02T01:15:13.435Z,98.05
2023-02-02T01:16:13.442Z,98.26
2023-02-02T01:17:13.374Z,97.95
2023-02-02T01:18:13.378Z,97.95
2023-02-02T01:19:13.351Z,97.64
2023-02-02T01:20:13.385Z,97.22
2023-02-02T01:21:13.360Z,97.64
2023-02-02T01:22:13.326Z,97.74
2023-02-02T01:23:13.300Z,97.95
2023-02-02T01:24:13.306Z,97.53
2023-02-02T01:25:13.426Z,97.43
2023-02-02T01:26:13.290Z,97.74
2023-02-02T01:27:13.280Z,97.74
2023-02-02T01:28:13.251Z,97.85
2023-02-02T01:29:13.250Z,97.95
2023-02-02T01:30:13.283Z,97.85
2023-02-02T01:31:13.267Z,97.95
2023-02-02T01:32:13.201Z,97.95
2023-02-02T01:33:13.212Z,98.47
2023-02-02T01:34:13.181Z,98.16
2023-02-02T01:35:13.225Z,98.26
2023-02-02T01:36:13.185Z,97.64
2023-02-02T01:37:13.144Z,97.33
2023-02-02T01:38:13.152Z,97.64
2023-02-02T01:39:13.132Z,97.64
2023-02-02T01:40:13.188Z,97.74
2023-02-02T01:41:13.103Z,96.81
2023-02-02T01:42:13.111Z,96.34
2023-02-02T01:43:13.080Z,96.81
2023-02-02T01:44:13.087Z,96.45
2023-02-02T01:45:13.103Z,96.14
2023-02-02T01:46:13.114Z,95.93
2023-02-02T01:47:13.042Z,96.34
2023-02-02T01:48:13.038Z,96.45
2023-02-02T01:49:13.027Z,96.97
2023-02-02T01:50:13.066Z,96.97
2023-02-02T01:51:13.029Z,97.07
2023-02-02T01:52:12.984Z,97.07
2023-02-02T01:53:12.980Z,97.38
2023-02-02T01:54:12.976Z,97.12
2023-02-02T01:55:12.988Z,96.76
2023-02-02T01:56:12.973Z,96.97
2023-02-02T01:57:12.954Z,96.97
2023-02-02T01:58:12.932Z,96.55
2023-02-02T01:59:12.916Z,96.76
2023-02-02T02:00:12.949Z,96.55
2023-02-02T02:01:12.925Z,96.66
2023-02-02T02:02:12.903Z,96.55
2023-02-02T02:03:12.877Z,96.34
2023-02-02T02:04:12.860Z,96.24
2023-02-02T02:05:12.896Z,96.76
2023-02-02T02:06:12.909Z,96.03
2023-02-02T02:07:12.830Z,95.41
2023-02-02T02:08:12.803Z,95.26
2023-02-02T02:09:12.798Z,95.47
2023-02-02T02:10:12.828Z,95.26
2023-02-02T02:11:12.775Z,95.26
2023-02-02T02:12:12.763Z,94.74
2023-02-02T02:13:12.748Z,95.26
2023-02-02T02:14:12.766Z,94.85
2023-02-02T02:15:12.770Z,94.85
2023-02-02T02:16:12.755Z,94.54
2023-02-02T02:17:12.730Z,94.54
2023-02-02T02:18:12.702Z,93.98
2023-02-02T02:19:12.679Z,94.08
2023-02-02T02:20:12.714Z,94.60
2023-02-02T02:21:12.664Z,94.18
2023-02-02T02:22:12.649Z,94.29
2023-02-02T02:23:12.635Z,94.18
2023-02-02T02:24:12.655Z,94.08
2023-02-02T02:25:12.650Z,93.98
2023-02-02T02:26:12.612Z,93.98
2023-02-02T02:27:12.591Z,94.60
2023-02-02T02:28:12.593Z,94.39
2023-02-02T02:29:12.582Z,93.77
2023-02-02T02:30:12.612Z,93.87
2023-02-02T02:31:12.675Z,93.77
2023-02-02T02:32:12.544Z,93.77
2023-02-02T02:33:12.506Z,93.56
2023-02-02T02:34:12.498Z,93.66
2023-02-02T02:35:12.542Z,93.87
2023-02-02T02:36:12.497Z,93.87
2023-02-02T02:37:12.466Z,93.77
2023-02-02T02:38:12.466Z,93.77
2023-02-02T02:39:12.435Z,93.66
2023-02-02T02:40:12.487Z,93.35
2023-02-02T02:41:12.420Z,93.25
2023-02-02T02:42:12.425Z,93.00
2023-02-02T02:43:12.432Z,93.10
2023-02-02T02:44:12.392Z,93.00
2023-02-02T02:45:12.431Z,93.10
2023-02-02T02:46:12.417Z,93.21
2023-02-02T02:47:12.354Z,92.38
2023-02-02T02:48:12.359Z,92.07
2023-02-02T02:49:12.328Z,92.38
2023-02-02T02:50:12.362Z,92.59
2023-02-02T02:51:12.301Z,92.28
2023-02-02T02:52:12.326Z,92.18
2023-02-02T02:53:12.284Z,92.59
2023-02-02T02:54:12.283Z,93.41
2023-02-02T02:55:12.314Z,92.80
2023-02-02T02:56:12.259Z,92.80
2023-02-02T02:57:12.237Z,93.73
2023-02-02T02:58:12.239Z,93.31
2023-02-02T02:59:12.231Z,93.62
2023-02-02T03:00:12.252Z,93.10
2023-02-02T03:01:12.279Z,93.93
2023-02-02T03:02:12.200Z,93.73
2023-02-02T03:03:12.180Z,93.21
2023-02-02T03:04:12.158Z,93.62
2023-02-02T03:05:12.203Z,93.73
2023-02-02T03:06:12.135Z,94.04
2023-02-02T03:07:12.124Z,94.35
2023-02-02T03:08:12.107Z,94.66
2023-02-02T03:09:12.116Z,94.66
2023-02-02T03:10:12.112Z,94.14
2023-02-02T03:11:12.082Z,94.14
2023-02-02T03:12:12.058Z,94.14
2023-02-02T03:13:12.049Z,94.35
2023-02-02T03:14:12.037Z,94.76
2023-02-02T03:15:12.068Z,94.35
2023-02-02T03:16:12.097Z,93.93
2023-02-02T03:17:12.037Z,94.14
2023-02-02T03:18:12.008Z,94.14
2023-02-02T03:19:11.995Z,94.24
2023-02-02T03:20:12.040Z,94.35
2023-02-02T03:21:11.957Z,93.73
2023-02-02T03:22:11.934Z,93.93
2023-02-02T03:23:11.936Z,93.06
2023-02-02T03:24:11.936Z,93.16
2023-02-02T03:25:11.966Z,93.06
2023-02-02T03:26:11.889Z,93.27
2023-02-02T03:27:11.901Z,93.37
2023-02-02T03:28:11.902Z,93.68
2023-02-02T03:29:11.874Z,93.37
2023-02-02T03:30:11.886Z,93.48
2023-02-02T03:31:11.972Z,93.68
2023-02-02T03:32:11.822Z,93.48
2023-02-02T03:33:11.825Z,92.96
2023-02-02T03:34:11.816Z,93.37
2023-02-02T03:35:11.830Z,93.37
2023-02-02T03:36:11.783Z,93.79
2023-02-02T03:37:11.781Z,93.48
2023-02-02T03:38:11.776Z,93.68
2023-02-02T03:39:11.748Z,93.68
2023-02-02T03:40:11.792Z,93.79
2023-02-02T03:41:11.723Z,94.51
2023-02-02T03:42:11.711Z,94.10
2023-02-02T03:43:11.711Z,94.56
2023-02-02T03:44:11.691Z,94.56
2023-02-02T03:45:11.727Z,94.76
2023-02-02T03:46:11.692Z,94.66
2023-02-02T03:47:11.675Z,95.18
2023-02-02T03:48:11.659Z,94.87
2023-02-02T03:49:11.639Z,94.35
2023-02-02T03:50:11.673Z,94.10
2023-02-02T03:51:11.669Z,93.99
2023-02-02T03:52:11.600Z,93.89
2023-02-02T03:53:11.591Z,94.10
2023-02-02T03:54:11.574Z,94.51
2023-02-02T03:55:11.620Z,94.41
2023-02-02T03:56:11.566Z,94.31
2023-02-02T03:57:11.548Z,94.51
2023-02-02T03:58:11.547Z,94.72
2023-02-02T03:59:11.522Z,95.14
2023-02-02T04:00:11.524Z,95.14
2023-02-02T04:01:11.498Z,95.14
2023-02-02T04:02:11.480Z,95.75
2023-02-02T04:03:11.476Z,96.01
2023-02-02T04:04:11.471Z,96.42
2023-02-02T04:05:11.502Z,97.35
2023-02-02T04:06:11.434Z,97.97
2023-02-02T04:07:11.429Z,97.87
2023-02-02T04:08:11.426Z,98.70
2023-02-02T04:09:11.418Z,98.85
2023-02-02T04:10:11.431Z,98.95
2023-02-02T04:11:11.393Z,99.05
2023-02-02T04:12:11.361Z,98.85
2023-02-02T04:13:11.342Z,99.16
2023-02-02T04:14:11.384Z,99.99
2023-02-02T04:15:11.337Z,99.99
2023-02-02T04:16:11.424Z,99.99
2023-02-02T04:17:11.316Z,99.99
2023-02-02T04:18:11.304Z,99.99
2023-02-02T04:19:11.286Z,99.99
2023-02-02T04:20:11.294Z,99.99
2023-02-02T04:21:11.297Z,99.99
2023-02-02T04:22:11.265Z,99.99
2023-02-02T04:23:11.248Z,99.99
2023-02-02T04:24:11.231Z,99.99
2023-02-02T04:25:11.217Z,99.99
2023-02-02T04:26:11.242Z,99.99
2023-02-02T04:27:11.187Z,99.99
2023-02-02T04:28:11.191Z,99.99
2023-02-02T04:29:11.175Z,99.99
2023-02-02T04:30:11.157Z,99.99
2023-02-02T04:31:11.347Z,99.99
2023-02-02T04:32:11.125Z,99.99
2023-02-02T04:33:11.124Z,99.99
2023-02-02T04:34:11.108Z,99.99
2023-02-02T04:35:11.106Z,99.99
2023-02-02T04:36:11.111Z,99.99
2023-02-02T04:37:11.072Z,99.99
2023-02-02T04:38:11.057Z,99.99
2023-02-02T04:39:11.051Z,99.99
2023-02-02T04:40:11.040Z,99.99
2023-02-02T04:41:11.077Z,99.99
2023-02-02T04:42:11.008Z,99.99
2023-02-02T04:43:10.992Z,99.99
2023-02-02T04:44:10.993Z,99.99
2023-02-02T04:45:10.978Z,99.99
2023-02-02T04:46:11.056Z,99.99
2023-02-02T04:47:10.968Z,99.99
2023-02-02T04:48:10.944Z,99.99
2023-02-02T04:49:10.933Z,99.99
2023-02-02T04:50:10.922Z,99.99
2023-02-02T04:51:10.935Z,99.99
2023-02-02T04:52:10.922Z,99.99
2023-02-02T04:53:10.900Z,99.99
2023-02-02T04:54:10.889Z,99.99
2023-02-02T04:55:10.892Z,99.99
2023-02-02T04:56:10.880Z,99.99
2023-02-02T04:57:10.849Z,99.99
2023-02-02T04:58:10.842Z,99.99
2023-02-02T04:59:10.836Z,99.99
2023-02-02T05:00:10.788Z,99.99
2023-02-02T05:01:10.902Z,99.99
2023-02-02T05:02:10.767Z,99.99
2023-02-02T05:03:10.782Z,99.99
2023-02-02T05:04:10.805Z,99.99
2023-02-02T05:05:10.751Z,99.99
2023-02-02T05:06:10.786Z,99.99
2023-02-02T05:07:10.735Z,99.99
2023-02-02T05:08:10.733Z,99.99
2023-02-02T05:09:10.694Z,99.99
2023-02-02T05:10:10.699Z,99.99
2023-02-02T05:11:10.726Z,99.99
2023-02-02T05:12:10.658Z,99.99
2023-02-02T05:13:10.666Z,99.99
2023-02-02T05:14:10.662Z,99.99
2023-02-02T05:15:10.641Z,99.99
2023-02-02T05:16:10.681Z,99.99
2023-02-02T05:17:10.606Z,99.99
2023-02-02T05:18:10.611Z,99.99
2023-02-02T05:19:10.614Z,99.99
2023-02-02T05:20:10.594Z,99.99
2023-02-02T05:21:10.596Z,99.99
2023-02-02T05:22:10.554Z,99.99
2023-02-02T05:23:10.552Z,99.99
2023-02-02T05:24:10.538Z,99.99
2023-02-02T05:25:10.517Z,99.99
2023-02-02T05:26:10.547Z,99.99
2023-02-02T05:27:10.486Z,99.99
2023-02-02T05:28:10.471Z,99.99
2023-02-02T05:29:10.476Z,99.99
2023-02-02T05:30:10.444Z,99.99
2023-02-02T05:31:10.572Z,99.99
2023-02-02T05:32:10.491Z,99.99
2023-02-02T05:33:10.437Z,99.99
2023-02-02T05:34:10.438Z,99.99
2023-02-02T05:35:10.407Z,99.99
2023-02-02T05:36:10.456Z,99.99
2023-02-02T05:37:10.421Z,99.99
2023-02-02T05:38:10.377Z,99.99
2023-02-02T05:39:10.395Z,99.99
2023-02-02T05:40:10.341Z,99.99
2023-02-02T05:41:10.421Z,99.99
2023-02-02T05:42:10.341Z,99.99
2023-02-02T05:43:10.313Z,99.99
2023-02-02T05:44:10.343Z,99.99
2023-02-02T05:45:10.294Z,99.99
2023-02-02T05:46:10.417Z,99.99
2023-02-02T05:47:10.294Z,99.99
2023-02-02T05:48:10.266Z,99.99
2023-02-02T05:49:10.263Z,99.99
2023-02-02T05:50:10.228Z,99.99
2023-02-02T05:51:10.263Z,99.99
2023-02-02T05:52:10.209Z,99.99
2023-02-02T05:53:10.206Z,99.99
2023-02-02T05:54:10.211Z,99.99
2023-02-02T05:55:10.166Z,99.99
2023-02-02T05:56:10.190Z,99.99
2023-02-02T05:57:10.148Z,99.99
2023-02-02T05:58:10.146Z,99.99
2023-02-02T05:59:10.145Z,99.99
2023-02-02T06:00:10.146Z,99.99
2023-02-02T06:01:10.194Z,99.99
2023-02-02T06:02:10.098Z,99.99
2023-02-02T06:03:10.246Z,99.99
2023-02-02T06:04:10.108Z,99.99
2023-02-02T06:05:10.088Z,99.99
2023-02-02T06:06:10.045Z,99.99
2023-02-02T06:07:10.088Z,99.99
2023-02-02T06:08:10.033Z,99.99
2023-02-02T06:09:10.029Z,99.99
2023-02-02T06:10:10.010Z,99.99
2023-02-02T06:11:09.998Z,99.99
2023-02-02T06:12:10.030Z,99.99
2023-02-02T06:13:09.969Z,99.99
2023-02-02T06:14:09.965Z,99.99
2023-02-02T06:15:09.948Z,99.99
2023-02-02T06:16:10.005Z,99.99
2023-02-02T06:17:09.997Z,99.99
2023-02-02T06:18:09.927Z,99.99
2023-02-02T06:19:09.933Z,99.99
2023-02-02T06:20:09.899Z,99.99
2023-02-02T06:21:09.889Z,99.99
2023-02-02T06:22:09.956Z,99.99
2023-02-02T06:23:09.895Z,99.99
2023-02-02T06:24:09.865Z,99.99
2023-02-02T06:25:09.849Z,99.99
2023-02-02T06:26:09.834Z,99.99
2023-02-02T06:27:09.868Z,99.99
2023-02-02T06:28:09.791Z,99.99
2023-02-02T06:29:09.798Z,99.99
2023-02-02T06:30:09.801Z,99.99
2023-02-02T06:31:09.877Z,99.99
2023-02-02T06:32:09.853Z,99.99
2023-02-02T06:33:09.755Z,99.99
2023-02-02T06:34:09.752Z,99.99
2023-02-02T06:35:09.754Z,99.99
2023-02-02T06:36:09.733Z,99.99
2023-02-02T06:37:09.742Z,99.99
2023-02-02T06:38:09.699Z,99.99
2023-02-02T06:39:09.736Z,99.99
2023-02-02T06:40:09.683Z,99.99
2023-02-02T06:41:09.680Z,99.99
2023-02-02T06:42:20.797Z,99.99
2023-02-02T06:43:10.632Z,99.99
2023-02-02T06:44:09.657Z,99.99
2023-02-02T06:45:09.622Z,99.99
2023-02-02T06:46:09.665Z,99.99
2023-02-02T06:47:09.622Z,99.99
2023-02-02T06:48:09.573Z,99.99
2023-02-02T06:49:09.594Z,99.99
2023-02-02T06:50:09.586Z,99.99
2023-02-02T06:51:09.666Z,99.99
2023-02-02T06:52:09.575Z,99.66
2023-02-02T06:53:09.504Z,99.98
2023-02-02T06:54:09.538Z,99.77
2023-02-02T06:55:09.505Z,99.99
2023-02-02T06:56:09.487Z,99.99
2023-02-02T06:57:09.543Z,99.99
2023-02-02T06:58:09.458Z,99.66
2023-02-02T06:59:09.474Z,99.56
2023-02-02T07:00:09.438Z,99.35
2023-02-02T07:01:09.495Z,99.25
2023-02-02T07:02:09.468Z,99.04
2023-02-02T07:03:09.408Z,99.15
2023-02-02T07:04:09.407Z,99.04
2023-02-02T07:05:09.383Z,99.46
2023-02-02T07:06:09.370Z,98.73
2023-02-02T07:07:09.418Z,98.38
2023-02-02T07:08:09.403Z,98.79
2023-02-02T07:09:09.392Z,98.69
2023-02-02T07:10:09.325Z,98.38
2023-02-02T07:11:15.208Z,98.48
2023-02-02T07:12:10.341Z,98.48
2023-02-02T07:13:09.303Z,98.90
2023-02-02T07:14:09.283Z,98.90
2023-02-02T07:15:09.289Z,98.90
2023-02-02T07:16:09.366Z,99.21
2023-02-02T07:17:09.292Z,98.79
2023-02-02T07:18:09.332Z,99.21
2023-02-02T07:19:09.221Z,99.10
2023-02-02T07:20:09.206Z,99.41
2023-02-02T07:21:09.201Z,99.31
2023-02-02T07:22:09.237Z,98.48
2023-02-02T07:23:09.188Z,98.64
2023-02-02T07:24:09.179Z,98.54
2023-02-02T07:25:09.142Z,98.02
2023-02-02T07:26:09.146Z,97.60
2023-02-02T07:27:09.132Z,98.43
2023-02-02T07:28:09.188Z,98.22
2023-02-02T07:29:09.131Z,97.71
2023-02-02T07:30:09.116Z,97.29
2023-02-02T07:31:09.161Z,97.60
2023-02-02T07:32:09.075Z,97.29
2023-02-02T07:33:09.113Z,96.83
2023-02-02T07:34:09.056Z,96.83
2023-02-02T07:35:09.051Z,96.94
2023-02-02T07:36:09.055Z,96.73
2023-02-02T07:37:09.027Z,96.52
2023-02-02T07:38:09.022Z,96.83
2023-02-02T07:39:08.997Z,95.70
2023-02-02T07:40:08.978Z,95.70
2023-02-02T07:41:09.077Z,95.44
2023-02-02T07:42:08.995Z,95.65
2023-02-02T07:43:08.999Z,96.06
2023-02-02T07:44:08.944Z,95.44
2023-02-02T07:45:26.811Z,94.62
2023-02-02T07:46:10.052Z,93.95
2023-02-02T07:47:08.895Z,93.58
2023-02-02T07:48:08.891Z,93.89
2023-02-02T07:49:08.957Z,93.79
2023-02-02T07:50:08.885Z,93.99
2023-02-02T07:51:08.880Z,94.62
2023-02-02T07:52:08.851Z,93.58
2023-02-02T07:53:08.863Z,93.54
2023-02-02T07:54:08.877Z,93.23
2023-02-02T07:55:14.847Z,92.61
2023-02-02T07:56:09.800Z,93.23
2023-02-02T07:57:08.786Z,92.61
2023-02-02T07:58:08.796Z,92.50
2023-02-02T07:59:08.828Z,92.30
2023-02-02T08:00:08.763Z,91.99
2023-02-02T08:01:08.780Z,92.36
2023-02-02T08:02:08.830Z,91.94
2023-02-02T08:03:08.767Z,91.17
2023-02-02T08:04:08.751Z,90.14
2023-02-02T08:05:08.699Z,90.77
2023-02-02T08:06:08.657Z,89.62
2023-02-02T08:07:08.677Z,90.14
2023-02-02T08:08:08.648Z,90.04
2023-02-02T08:09:08.702Z,89.94
2023-02-02T08:10:08.655Z,89.73
2023-02-02T08:11:08.643Z,90.35
2023-02-02T08:12:08.630Z,91.28
2023-02-02T08:13:08.585Z,90.35
2023-02-02T08:14:08.646Z,90.56
2023-02-02T08:15:08.603Z,90.77
2023-02-02T08:16:08.634Z,91.50
2023-02-02T08:17:08.553Z,89.75
2023-02-02T08:18:08.548Z,90.47
2023-02-02T08:19:08.559Z,89.65
2023-02-02T08:20:08.512Z,90.10
2023-02-02T08:21:08.513Z,91.55
2023-02-02T08:22:08.511Z,90.93
2023-02-02T08:23:08.494Z,90.77
2023-02-02T08:24:08.503Z,90.66
2023-02-02T08:25:08.444Z,91.17
2023-02-02T08:26:08.473Z,91.38
2023-02-02T08:27:08.443Z,92.32
2023-02-02T08:28:08.433Z,91.90
2023-02-02T08:29:08.477Z,91.90
2023-02-02T08:30:08.407Z,92.52
2023-02-02T08:31:08.457Z,92.42
2023-02-02T08:32:08.381Z,92.72
2023-02-02T08:33:08.406Z,92.63
2023-02-02T08:34:08.423Z,92.52
2023-02-02T08:35:08.345Z,92.11
2023-02-02T08:36:08.318Z,92.32
2023-02-02T08:37:08.327Z,92.77
2023-02-02T08:38:08.320Z,92.97
2023-02-02T08:39:08.347Z,92.46
2023-02-02T08:40:08.385Z,93.14
2023-02-02T08:41:08.293Z,92.25
2023-02-02T08:42:08.271Z,92.83
2023-02-02T08:43:10.605Z,92.32
2023-02-02T08:44:10.894Z,91.69
2023-02-02T08:46:09.296Z,93.14
2023-02-02T08:46:13.589Z,92.00
2023-02-02T08:47:08.364Z,91.17
2023-02-02T08:48:12.120Z,90.72
2023-02-02T08:49:08.233Z,90.20
2023-02-02T08:50:08.170Z,89.48
2023-02-02T08:51:08.167Z,89.86
2023-02-02T08:52:08.158Z,89.86
2023-02-02T08:53:08.165Z,89.54
2023-02-02T08:54:08.210Z,89.81
2023-02-02T08:55:08.144Z,88.65
2023-02-02T08:56:08.122Z,85.91
2023-02-02T08:57:08.094Z,86.05
2023-02-02T08:58:08.074Z,86.51
2023-02-02T08:59:08.081Z,85.87
2023-02-02T09:00:08.090Z,84.19
2023-02-02T09:01:08.057Z,84.43
2023-02-02T09:02:08.069Z,84.72
2023-02-02T09:03:07.998Z,82.24
2023-02-02T09:04:08.017Z,79.91
2023-02-02T09:05:08.017Z,78.43
2023-02-02T09:06:07.985Z,76.89
2023-02-02T09:07:07.992Z,80.56
2023-02-02T09:08:07.962Z,81.28
2023-02-02T09:09:07.969Z,81.11
2023-02-02T09:10:07.989Z,80.22
2023-02-02T09:11:07.966Z,81.19
2023-02-02T09:12:07.947Z,81.95
2023-02-02T09:13:07.927Z,82.29
2023-02-02T09:14:07.920Z,83.84
2023-02-02T09:15:07.917Z,83.26
2023-02-02T09:16:07.919Z,84.59
2023-02-02T09:17:07.855Z,84.74
2023-02-02T09:18:07.889Z,85.71
2023-02-02T09:19:07.835Z,86.43
2023-02-02T09:20:07.861Z,86.53
2023-02-02T09:21:07.832Z,88.59
2023-02-02T09:22:07.797Z,88.12
2023-02-02T09:23:07.797Z,89.05
2023-02-02T09:24:07.790Z,90.08
2023-02-02T09:25:07.799Z,90.95
2023-02-02T09:26:07.771Z,93.05
2023-02-02T09:27:07.756Z,94.34
2023-02-02T09:28:07.733Z,96.86
2023-02-02T09:29:07.732Z,98.56
2023-02-02T09:30:07.748Z,99.85
2023-02-02T09:31:07.702Z,99.99
2023-02-02T09:32:07.729Z,99.99
2023-02-02T09:33:07.678Z,99.99
2023-02-02T09:34:07.660Z,99.99
2023-02-02T09:35:07.701Z,99.99
2023-02-02T09:36:07.659Z,99.99
2023-02-02T09:37:07.614Z,99.80
2023-02-02T09:38:07.637Z,99.99
2023-02-02T09:39:07.619Z,99.87
2023-02-02T09:40:07.656Z,97.97
2023-02-02T09:41:07.829Z,97.04
2023-02-02T09:42:07.577Z,98.33
2023-02-02T09:43:07.554Z,98.08
2023-02-02T09:44:07.565Z,96.39
2023-02-02T09:45:07.604Z,95.36
2023-02-02T09:46:07.587Z,94.64
2023-02-02T09:47:07.524Z,95.42
2023-02-02T09:48:07.524Z,93.98
2023-02-02T09:49:07.488Z,94.34
2023-02-02T09:50:07.555Z,93.41
2023-02-02T09:51:07.469Z,92.90
2023-02-02T09:52:07.455Z,93.93
2023-02-02T09:53:08.030Z,93.27
2023-02-02T09:54:07.460Z,92.80
2023-02-02T09:55:07.458Z,93.31
2023-02-02T09:56:07.414Z,93.41
2023-02-02T09:57:07.425Z,93.27
2023-02-02T09:58:07.398Z,92.34
2023-02-02T09:59:19.404Z,92.92
2023-02-02T10:00:08.399Z,91.23
2023-02-02T10:01:07.403Z,91.06
2023-02-02T10:02:07.350Z,90.55
2023-02-02T10:03:07.330Z,90.84
2023-02-02T10:04:07.486Z,92.02
2023-02-02T10:05:08.357Z,91.58
2023-02-02T10:06:07.285Z,93.38
2023-02-02T10:07:07.296Z,95.24
2023-02-02T10:08:07.316Z,95.96
2023-02-02T10:09:07.273Z,95.76
2023-02-02T10:10:07.316Z,95.80
2023-02-02T10:11:07.258Z,95.22
2023-02-02T10:12:07.246Z,95.32
2023-02-02T10:13:07.192Z,95.22
2023-02-02T10:14:07.226Z,95.22
2023-02-02T10:15:07.208Z,94.97
2023-02-02T10:16:07.261Z,95.14
2023-02-02T10:17:07.186Z,94.82
2023-02-02T10:18:07.190Z,93.24
2023-02-02T10:19:07.177Z,93.75
2023-02-02T10:20:07.173Z,91.96
2023-02-02T10:21:07.109Z,92.53
2023-02-02T10:22:07.131Z,92.18
2023-02-02T10:23:07.130Z,89.91
2023-02-02T10:24:07.106Z,89.91
2023-02-02T10:25:07.120Z,89.19
2023-02-02T10:26:07.091Z,89.71
2023-02-02T10:27:07.114Z,90.67
2023-02-02T10:28:07.079Z,90.53
2023-02-02T10:29:07.055Z,91.21
2023-02-02T10:30:07.059Z,88.53
2023-02-02T10:31:07.058Z,88.59
2023-02-02T10:32:07.039Z,88.86
2023-02-02T10:33:06.990Z,85.74
2023-02-02T10:34:07.031Z,84.95
2023-02-02T10:35:16.180Z,85.57
2023-02-02T10:36:07.962Z,86.35
2023-02-02T10:37:07.000Z,83.78
2023-02-02T10:38:07.490Z,84.69
2023-02-02T10:39:06.918Z,87.05
2023-02-02T10:40:06.980Z,85.10
2023-02-02T10:41:06.902Z,86.16
2023-02-02T10:42:06.896Z,86.88
2023-02-02T10:43:06.857Z,86.93
2023-02-02T10:44:06.885Z,87.13
2023-02-02T10:45:06.890Z,85.42
2023-02-02T10:46:06.871Z,86.04
2023-02-02T10:47:06.837Z,86.35
2023-02-02T10:48:06.831Z,86.24
2023-02-02T10:49:06.819Z,85.73
2023-02-02T10:50:06.897Z,86.87
2023-02-02T10:51:06.805Z,87.13
2023-02-02T10:52:06.763Z,86.68
2023-02-02T10:53:06.753Z,85.86
2023-02-02T10:54:06.753Z,84.97
2023-02-02T10:55:06.787Z,85.59
2023-02-02T10:56:06.766Z,87.07
2023-02-02T10:57:06.709Z,86.97
2023-02-02T10:58:06.698Z,85.15
2023-02-02T10:59:06.680Z,86.63
2023-02-02T11:00:06.698Z,86.02
2023-02-02T11:01:06.697Z,86.02
2023-02-02T11:02:20.470Z,87.46
2023-02-02T11:03:07.667Z,87.01
2023-02-02T11:04:06.739Z,86.80
2023-02-02T11:05:06.656Z,86.21
2023-02-02T11:06:06.613Z,84.07
2023-02-02T11:07:06.593Z,83.28
2023-02-02T11:08:06.591Z,83.80
2023-02-02T11:09:06.577Z,83.07
2023-02-02T11:10:06.635Z,83.59
2023-02-02T11:11:06.561Z,82.87
2023-02-02T11:12:06.555Z,83.28
2023-02-02T11:13:06.533Z,83.49
2023-02-02T11:14:06.527Z,82.50
2023-02-02T11:15:06.533Z,83.94
2023-02-02T11:16:06.547Z,83.77
2023-02-02T11:17:06.489Z,84.08
2023-02-02T11:18:06.470Z,86.04
2023-02-02T11:19:06.481Z,85.25
2023-02-02T11:20:06.495Z,85.15
2023-02-02T11:21:06.432Z,85.36
2023-02-02T11:22:06.440Z,85.05
2023-02-02T11:23:06.419Z,85.15
2023-02-02T11:24:06.416Z,84.33
2023-02-02T11:25:06.374Z,84.53
2023-02-02T11:26:06.448Z,84.74
2023-02-02T11:27:06.361Z,86.29
2023-02-02T11:28:06.339Z,84.99
2023-02-02T11:29:06.329Z,85.60
2023-02-02T11:30:06.313Z,85.30
2023-02-02T11:31:06.442Z,84.88
2023-02-02T11:32:06.315Z,85.71
2023-02-02T11:33:06.299Z,86.63
2023-02-02T11:34:06.289Z,85.09
2023-02-02T11:35:06.304Z,84.78
2023-02-02T11:36:06.316Z,86.12
2023-02-02T11:37:06.265Z,85.39
2023-02-02T11:38:06.233Z,84.88
2023-02-02T11:39:06.242Z,84.99
2023-02-02T11:40:06.221Z,85.81
2023-02-02T11:41:06.247Z,85.91
2023-02-02T11:42:06.213Z,86.94
2023-02-02T11:43:06.169Z,84.99
2023-02-02T11:44:06.173Z,85.75
2023-02-02T11:45:06.164Z,84.92
2023-02-02T11:46:06.272Z,84.81
2023-02-02T11:47:06.152Z,85.54
2023-02-02T11:48:06.104Z,85.02
2023-02-02T11:49:06.112Z,85.44
2023-02-02T11:50:06.097Z,84.67
2023-02-02T11:51:06.165Z,82.51
2023-02-02T11:52:06.677Z,83.54
2023-02-02T11:53:06.076Z,84.78
2023-02-02T11:54:06.074Z,83.33
2023-02-02T11:55:06.104Z,83.33
2023-02-02T11:56:06.032Z,82.82
2023-02-02T11:57:06.011Z,83.44
2023-02-02T11:58:05.972Z,84.88
2023-02-02T11:59:06.015Z,83.23
2023-02-02T12:00:05.981Z,83.64
2023-02-02T12:01:05.985Z,82.57
2023-02-02T12:02:05.983Z,82.06
2023-02-02T12:03:05.973Z,82.21
2023-02-02T12:04:05.941Z,79.46
2023-02-02T12:05:05.932Z,77.85
2023-02-02T12:06:05.947Z,79.29
2023-02-02T12:07:05.909Z,76.97
2023-02-02T12:08:05.907Z,78.06
2023-02-02T12:09:05.870Z,77.20
2023-02-02T12:10:05.869Z,74.36
2023-02-02T12:11:05.904Z,75.25
2023-02-02T12:12:05.838Z,75.76
2023-02-02T12:13:05.838Z,74.66
2023-02-02T12:14:05.817Z,73.68
2023-02-02T12:15:05.812Z,75.38
2023-02-02T12:16:08.670Z,75.67
2023-02-02T12:17:05.792Z,78.10
2023-02-02T12:18:05.826Z,79.44
2023-02-02T12:19:05.758Z,79.23
2023-02-02T12:20:05.773Z,77.62
2023-02-02T12:21:05.774Z,77.86
2023-02-02T12:22:05.747Z,79.37
2023-02-02T12:23:05.715Z,81.23
2023-02-02T12:24:05.728Z,79.27
2023-02-02T12:25:05.688Z,79.30
2023-02-02T12:26:05.761Z,80.13
2023-02-02T12:27:05.668Z,79.93
2023-02-02T12:28:05.649Z,78.38
2023-02-02T12:29:05.657Z,77.86
2023-02-02T12:30:05.611Z,76.73
2023-02-02T12:31:05.662Z,76.11
2023-02-02T12:32:05.675Z,76.32
2023-02-02T12:33:05.605Z,76.87
2023-02-02T12:34:05.611Z,75.43
2023-02-02T12:35:05.561Z,75.43
2023-02-02T12:36:05.611Z,75.53
2023-02-02T12:37:05.561Z,74.71
2023-02-02T12:38:05.532Z,75.52
2023-02-02T12:39:05.532Z,73.19
2023-02-02T12:40:05.524Z,76.18
2023-02-02T12:41:05.581Z,74.84
2023-02-02T12:42:05.501Z,74.22
2023-02-02T12:43:05.490Z,74.05
2023-02-02T12:44:05.467Z,75.70
2023-02-02T12:45:05.467Z,74.98
2023-02-02T12:46:05.541Z,75.90
2023-02-02T12:47:05.433Z,76.63
2023-02-02T12:48:05.454Z,76.35
2023-02-02T12:49:05.424Z,75.81
2023-02-02T12:50:05.403Z,76.90
2023-02-02T12:51:05.445Z,74.57
2023-02-02T12:52:05.398Z,70.50